CCA965 ZBAA-EDDF
Flight info
| Callsign | CCA965 |
|---|---|
| Flight time | N/A |
| Altitude | 35100 |
| Route | K0917S1040 IDKEX2G IDKEX B339 ASILA A575 INTIK Y655 SEBRA/K0928S1100 Y655 AROGU A575 DARNO/K0917F360 A575 KD A308 OSNAB R362 KZ A575 UNKIS/K0917F380 P982 LIKNU N869 DURTI L29 SUPEK DCT BENIM DCT INKUZ/K0907F400 DCT LAFAT/N0489F400 DCT VABER DCT SUWGI DCT SUBIX DCT POVEL DCT RIMET/N0495F310 T157 KOKEB/N0461F230 T157 KERAX KERAX5A |
| Aircraft | B748/H-SDE3FGHIM1M2RWXY/LB1 |
Departure
| Time | N/A |
|---|---|
| Airport | Beijing Capital International Airport (ZBAA) |
Arrival
| Time | 2026-05-05 15:10 |
|---|---|
| Airport | Frankfurt Main Airport (EDDF) |
| Time | Latitude | Longitude | Altitude | Speed | Heading |
|---|---|---|---|---|---|
| 2026-05-05 10:39 | 58.29428 | 67.21624 | 39876 ft | 495 kts | 283° |
| 2026-05-05 10:39 | 58.31176 | 67.08971 | 39890 ft | 495 kts | 283° |
| 2026-05-05 10:40 | 58.32919 | 66.96257 | 39888 ft | 496 kts | 283° |
| 2026-05-05 10:40 | 58.34647 | 66.83539 | 39889 ft | 496 kts | 283° |
| 2026-05-05 10:41 | 58.36352 | 66.70884 | 39877 ft | 496 kts | 283° |
| 2026-05-05 10:41 | 58.38056 | 66.58139 | 39876 ft | 496 kts | 283° |
| 2026-05-05 10:42 | 58.40586 | 66.39012 | 39870 ft | 496 kts | 283° |
| 2026-05-05 10:43 | 58.42260 | 66.26216 | 39867 ft | 497 kts | 283° |
| 2026-05-05 10:43 | 58.43926 | 66.13420 | 39865 ft | 497 kts | 283° |
| 2026-05-05 10:44 | 58.45582 | 66.00586 | 39866 ft | 497 kts | 283° |
| 2026-05-05 10:44 | 58.47223 | 65.87757 | 39876 ft | 497 kts | 283° |
| 2026-05-05 10:45 | 58.48850 | 65.74922 | 39874 ft | 497 kts | 283° |
| 2026-05-05 10:45 | 58.50464 | 65.62082 | 39874 ft | 497 kts | 282° |
| 2026-05-05 10:46 | 58.52067 | 65.49214 | 39865 ft | 498 kts | 282° |
| 2026-05-05 10:46 | 58.53659 | 65.36318 | 39866 ft | 498 kts | 282° |
| 2026-05-05 10:47 | 58.55238 | 65.23412 | 39867 ft | 498 kts | 282° |
| 2026-05-05 10:47 | 58.56804 | 65.10489 | 39864 ft | 498 kts | 282° |
| 2026-05-05 10:48 | 58.58348 | 64.97634 | 39865 ft | 498 kts | 282° |
| 2026-05-05 10:48 | 58.59889 | 64.84685 | 39864 ft | 498 kts | 282° |
| 2026-05-05 10:49 | 58.61419 | 64.71706 | 39849 ft | 499 kts | 282° |
| 2026-05-05 10:49 | 58.62936 | 64.58698 | 39855 ft | 499 kts | 282° |
| 2026-05-05 10:50 | 58.64440 | 64.45684 | 39856 ft | 499 kts | 282° |
| 2026-05-05 10:50 | 58.65921 | 64.32739 | 39856 ft | 499 kts | 282° |
| 2026-05-05 10:51 | 58.67399 | 64.19701 | 39854 ft | 499 kts | 281° |
| 2026-05-05 10:51 | 58.68862 | 64.06667 | 39853 ft | 499 kts | 281° |
| 2026-05-05 10:52 | 58.70308 | 63.93657 | 39855 ft | 496 kts | 281° |
| 2026-05-05 10:52 | 58.71823 | 63.80723 | 39880 ft | 496 kts | 284° |
| 2026-05-05 10:53 | 58.73548 | 63.67855 | 39855 ft | 496 kts | 283° |
| 2026-05-05 10:53 | 58.75245 | 63.55071 | 39858 ft | 496 kts | 284° |
| 2026-05-05 10:54 | 58.76947 | 63.42178 | 39858 ft | 496 kts | 283° |
| 2026-05-05 10:54 | 58.78630 | 63.29285 | 39856 ft | 496 kts | 283° |
| 2026-05-05 10:55 | 58.80303 | 63.16383 | 39857 ft | 496 kts | 283° |
| 2026-05-05 10:55 | 58.81958 | 63.03491 | 39864 ft | 493 kts | 283° |
| 2026-05-05 10:56 | 58.83596 | 62.90627 | 39857 ft | 493 kts | 283° |
| 2026-05-05 10:56 | 58.85222 | 62.77741 | 39857 ft | 493 kts | 283° |
| 2026-05-05 10:57 | 58.86825 | 62.64930 | 39860 ft | 493 kts | 283° |
| 2026-05-05 10:57 | 58.88422 | 62.52045 | 39861 ft | 493 kts | 283° |
| 2026-05-05 10:58 | 58.90008 | 62.39139 | 39858 ft | 493 kts | 283° |
| 2026-05-05 10:58 | 58.91581 | 62.26225 | 39853 ft | 493 kts | 283° |
| 2026-05-05 10:59 | 58.93139 | 62.13311 | 39865 ft | 492 kts | 282° |
| 2026-05-05 10:59 | 58.94684 | 62.00387 | 39864 ft | 492 kts | 282° |
| 2026-05-05 11:00 | 58.96215 | 61.87464 | 39865 ft | 492 kts | 282° |
| 2026-05-05 11:00 | 58.97732 | 61.74539 | 39864 ft | 492 kts | 282° |
| 2026-05-05 11:01 | 58.99230 | 61.61603 | 39861 ft | 492 kts | 280° |
| 2026-05-05 11:01 | 59.00507 | 61.48550 | 39853 ft | 492 kts | 281° |
| 2026-05-05 11:02 | 59.01779 | 61.35601 | 39851 ft | 491 kts | 280° |
| 2026-05-05 11:02 | 59.03024 | 61.22554 | 39852 ft | 491 kts | 280° |
| 2026-05-05 11:03 | 59.04271 | 61.09514 | 39854 ft | 491 kts | 280° |
| 2026-05-05 11:03 | 59.05495 | 60.96451 | 39851 ft | 492 kts | 280° |
| 2026-05-05 11:04 | 59.06713 | 60.83378 | 39850 ft | 491 kts | 279° |
| 2026-05-05 11:04 | 59.07916 | 60.70270 | 39846 ft | 491 kts | 279° |
| 2026-05-05 11:05 | 59.09106 | 60.57186 | 39850 ft | 491 kts | 279° |
| 2026-05-05 11:05 | 59.10279 | 60.44109 | 39840 ft | 491 kts | 279° |
| 2026-05-05 11:06 | 59.11433 | 60.31105 | 39843 ft | 491 kts | 279° |
| 2026-05-05 11:06 | 59.12580 | 60.18008 | 39843 ft | 491 kts | 279° |
| 2026-05-05 11:07 | 59.13715 | 60.04897 | 39844 ft | 491 kts | 279° |
| 2026-05-05 11:07 | 59.14837 | 59.91781 | 39835 ft | 491 kts | 279° |
| 2026-05-05 11:08 | 59.15945 | 59.78650 | 39825 ft | 491 kts | 278° |
| 2026-05-05 11:08 | 59.17040 | 59.65523 | 39838 ft | 491 kts | 278° |
| 2026-05-05 11:09 | 59.18121 | 59.52389 | 39819 ft | 491 kts | 278° |
| 2026-05-05 11:09 | 59.19188 | 59.39251 | 39833 ft | 491 kts | 278° |
| 2026-05-05 11:10 | 59.20246 | 59.26058 | 39833 ft | 492 kts | 278° |
| 2026-05-05 11:10 | 59.21290 | 59.12871 | 39831 ft | 492 kts | 278° |
| 2026-05-05 11:11 | 59.22321 | 58.99660 | 39829 ft | 492 kts | 278° |
| 2026-05-05 11:11 | 59.23332 | 58.86534 | 39829 ft | 492 kts | 278° |
| 2026-05-05 11:12 | 59.24336 | 58.73314 | 39825 ft | 492 kts | 278° |
| 2026-05-05 11:12 | 59.25327 | 58.60083 | 39828 ft | 492 kts | 277° |
| 2026-05-05 11:13 | 59.26305 | 58.46834 | 39830 ft | 492 kts | 277° |
| 2026-05-05 11:13 | 59.27269 | 58.33602 | 39833 ft | 492 kts | 277° |
| 2026-05-05 11:14 | 59.28219 | 58.20351 | 39835 ft | 491 kts | 277° |
| 2026-05-05 11:14 | 59.29156 | 58.07099 | 39829 ft | 491 kts | 277° |
| 2026-05-05 11:15 | 59.30086 | 57.93865 | 39824 ft | 491 kts | 277° |
| 2026-05-05 11:15 | 59.31014 | 57.80620 | 39823 ft | 491 kts | 277° |
| 2026-05-05 11:16 | 59.31921 | 57.67352 | 39827 ft | 491 kts | 277° |
| 2026-05-05 11:16 | 59.32818 | 57.54109 | 39822 ft | 491 kts | 277° |
| 2026-05-05 11:17 | 59.33694 | 57.40925 | 39820 ft | 488 kts | 277° |
| 2026-05-05 11:17 | 59.34559 | 57.27737 | 39804 ft | 488 kts | 277° |
| 2026-05-05 11:18 | 59.35410 | 57.14517 | 39801 ft | 488 kts | 276° |
| 2026-05-05 11:18 | 59.36128 | 57.01275 | 39808 ft | 489 kts | 276° |
| 2026-05-05 11:19 | 59.36850 | 56.88029 | 39807 ft | 488 kts | 275° |
| 2026-05-05 11:19 | 59.37500 | 56.74751 | 39807 ft | 488 kts | 275° |
| 2026-05-05 11:20 | 59.38166 | 56.61578 | 39802 ft | 488 kts | 275° |
| 2026-05-05 11:20 | 59.38804 | 56.48296 | 39806 ft | 488 kts | 275° |
| 2026-05-05 11:21 | 59.39435 | 56.35082 | 39803 ft | 486 kts | 275° |
| 2026-05-05 11:21 | 59.40048 | 56.21871 | 39797 ft | 486 kts | 275° |
| 2026-05-05 11:22 | 59.40650 | 56.08656 | 39791 ft | 486 kts | 275° |
| 2026-05-05 11:22 | 59.41139 | 55.97663 | 39783 ft | 486 kts | 275° |
| 2026-05-05 11:23 | 59.41715 | 55.84439 | 39786 ft | 486 kts | 274° |
| 2026-05-05 11:23 | 59.42279 | 55.71206 | 39786 ft | 486 kts | 274° |
| 2026-05-05 11:24 | 59.42829 | 55.57962 | 39762 ft | 486 kts | 274° |
| 2026-05-05 11:24 | 59.43362 | 55.44802 | 39776 ft | 486 kts | 274° |
| 2026-05-05 11:25 | 59.43885 | 55.31549 | 39779 ft | 486 kts | 274° |
| 2026-05-05 11:25 | 59.44395 | 55.18299 | 39770 ft | 486 kts | 274° |
| 2026-05-05 11:26 | 59.44891 | 55.05061 | 39769 ft | 486 kts | 274° |
| 2026-05-05 11:26 | 59.45370 | 54.91903 | 39768 ft | 486 kts | 274° |
| 2026-05-05 11:27 | 59.45839 | 54.78666 | 39760 ft | 486 kts | 273° |
| 2026-05-05 11:27 | 59.46295 | 54.65397 | 39759 ft | 486 kts | 273° |
| 2026-05-05 11:28 | 59.46738 | 54.52143 | 39757 ft | 486 kts | 273° |
| 2026-05-05 11:28 | 59.47167 | 54.38874 | 39748 ft | 486 kts | 273° |
| 2026-05-05 11:29 | 59.47580 | 54.25682 | 39755 ft | 486 kts | 273° |
| 2026-05-05 11:29 | 59.47982 | 54.12412 | 39755 ft | 486 kts | 273° |
| 2026-05-05 11:30 | 59.48371 | 53.99128 | 39748 ft | 486 kts | 272° |
| 2026-05-05 11:30 | 59.48746 | 53.85846 | 39731 ft | 486 kts | 272° |
| 2026-05-05 11:31 | 59.49108 | 53.72566 | 39733 ft | 486 kts | 272° |
| 2026-05-05 11:31 | 59.49454 | 53.59363 | 39729 ft | 486 kts | 272° |
| 2026-05-05 11:32 | 59.49789 | 53.46085 | 39749 ft | 486 kts | 272° |
| 2026-05-05 11:32 | 59.50110 | 53.32789 | 39738 ft | 486 kts | 272° |
| 2026-05-05 11:33 | 59.50418 | 53.19495 | 39725 ft | 486 kts | 273° |
| 2026-05-05 11:33 | 59.51069 | 53.06252 | 39721 ft | 486 kts | 275° |
| 2026-05-05 11:34 | 59.51741 | 52.93025 | 39721 ft | 485 kts | 275° |
| 2026-05-05 11:34 | 59.52401 | 52.79783 | 39714 ft | 485 kts | 275° |
| 2026-05-05 11:35 | 59.53048 | 52.66543 | 39712 ft | 485 kts | 275° |
| 2026-05-05 11:35 | 59.53680 | 52.53298 | 39710 ft | 485 kts | 275° |
| 2026-05-05 11:36 | 59.54295 | 52.40144 | 39702 ft | 485 kts | 275° |
| 2026-05-05 11:36 | 59.54901 | 52.26908 | 39708 ft | 485 kts | 275° |
| 2026-05-05 11:37 | 59.55493 | 52.13662 | 39704 ft | 485 kts | 274° |
| 2026-05-05 11:37 | 59.56072 | 52.00411 | 39704 ft | 484 kts | 274° |
| 2026-05-05 11:38 | 59.56646 | 51.87164 | 39705 ft | 484 kts | 274° |
| 2026-05-05 11:38 | 59.57202 | 51.73934 | 39691 ft | 483 kts | 274° |
| 2026-05-05 11:39 | 59.57746 | 51.60711 | 39693 ft | 484 kts | 274° |
| 2026-05-05 11:39 | 59.58275 | 51.47543 | 39702 ft | 485 kts | 274° |
| 2026-05-05 11:40 | 59.58793 | 51.34266 | 39691 ft | 485 kts | 274° |
| 2026-05-05 11:40 | 59.59299 | 51.20985 | 39684 ft | 485 kts | 274° |
| 2026-05-05 11:41 | 59.59791 | 51.07702 | 39683 ft | 485 kts | 274° |
| 2026-05-05 11:41 | 59.60270 | 50.94412 | 39670 ft | 485 kts | 273° |
| 2026-05-05 11:42 | 59.59694 | 50.81206 | 39699 ft | 485 kts | 255° |
| 2026-05-05 11:42 | 59.57503 | 50.68595 | 39694 ft | 486 kts | 251° |
| 2026-05-05 11:43 | 59.55186 | 50.56073 | 39683 ft | 486 kts | 251° |
| 2026-05-05 11:43 | 59.52867 | 50.43569 | 39683 ft | 485 kts | 251° |
| 2026-05-05 11:44 | 59.50505 | 50.31103 | 39686 ft | 486 kts | 250° |
| 2026-05-05 11:44 | 59.48129 | 50.18669 | 39691 ft | 485 kts | 250° |
| 2026-05-05 11:45 | 59.45746 | 50.06240 | 39693 ft | 485 kts | 250° |
| 2026-05-05 11:45 | 59.43365 | 49.93932 | 39682 ft | 485 kts | 250° |
| 2026-05-05 11:46 | 59.40970 | 49.81604 | 39683 ft | 483 kts | 250° |
| 2026-05-05 11:46 | 59.38556 | 49.69273 | 39686 ft | 484 kts | 250° |
| 2026-05-05 11:47 | 59.36126 | 49.56927 | 39690 ft | 485 kts | 250° |
| 2026-05-05 11:47 | 59.33679 | 49.44578 | 39679 ft | 485 kts | 250° |
| 2026-05-05 11:48 | 59.29991 | 49.26108 | 39671 ft | 485 kts | 250° |
| 2026-05-05 11:48 | 59.27517 | 49.13808 | 39670 ft | 485 kts | 250° |
| 2026-05-05 11:49 | 59.25050 | 49.01622 | 39673 ft | 485 kts | 249° |
| 2026-05-05 11:49 | 59.22555 | 48.89370 | 39673 ft | 485 kts | 249° |
| 2026-05-05 11:50 | 59.20046 | 48.77125 | 39676 ft | 485 kts | 249° |
| 2026-05-05 11:50 | 59.17545 | 48.64905 | 39668 ft | 485 kts | 249° |
| 2026-05-05 11:51 | 59.15030 | 48.52711 | 39674 ft | 485 kts | 249° |
| 2026-05-05 11:51 | 59.12502 | 48.40523 | 39675 ft | 485 kts | 249° |
| 2026-05-05 11:52 | 59.09961 | 48.28343 | 39671 ft | 485 kts | 249° |
| 2026-05-05 11:52 | 59.07409 | 48.16187 | 39682 ft | 487 kts | 249° |
| 2026-05-05 11:53 | 59.04834 | 48.03996 | 39678 ft | 487 kts | 249° |
| 2026-05-05 11:53 | 59.02249 | 47.91826 | 39679 ft | 487 kts | 249° |
| 2026-05-05 11:54 | 58.99653 | 47.79676 | 39678 ft | 487 kts | 248° |
| 2026-05-05 11:54 | 58.97064 | 47.67631 | 39679 ft | 487 kts | 248° |
| 2026-05-05 11:55 | 58.94442 | 47.55503 | 39679 ft | 487 kts | 248° |
| 2026-05-05 11:55 | 58.91812 | 47.43405 | 39679 ft | 487 kts | 248° |
| 2026-05-05 11:56 | 58.89175 | 47.31321 | 39682 ft | 487 kts | 248° |
| 2026-05-05 11:56 | 58.86526 | 47.19263 | 39682 ft | 487 kts | 248° |
| 2026-05-05 11:57 | 58.83865 | 47.07217 | 39682 ft | 487 kts | 248° |
| 2026-05-05 11:57 | 58.81192 | 46.95188 | 39676 ft | 487 kts | 248° |
| 2026-05-05 11:58 | 58.78517 | 46.83215 | 39675 ft | 486 kts | 248° |
| 2026-05-05 11:58 | 58.75832 | 46.71267 | 39671 ft | 485 kts | 248° |
| 2026-05-05 11:59 | 58.73145 | 46.59380 | 39678 ft | 484 kts | 248° |
| 2026-05-05 11:59 | 58.70460 | 46.47562 | 39679 ft | 486 kts | 248° |
| 2026-05-05 12:00 | 58.67737 | 46.35650 | 39680 ft | 487 kts | 247° |
| 2026-05-05 12:00 | 58.65003 | 46.23752 | 39713 ft | 486 kts | 247° |
| 2026-05-05 12:01 | 58.62264 | 46.11899 | 39692 ft | 486 kts | 247° |
| 2026-05-05 12:01 | 58.59510 | 46.00047 | 39692 ft | 486 kts | 247° |
| 2026-05-05 12:02 | 58.56746 | 45.88220 | 39692 ft | 486 kts | 247° |
| 2026-05-05 12:02 | 58.54040 | 45.76453 | 39696 ft | 485 kts | 252° |
| 2026-05-05 12:03 | 58.52268 | 45.64005 | 39696 ft | 485 kts | 256° |
| 2026-05-05 12:03 | 58.50596 | 45.51513 | 39692 ft | 485 kts | 256° |
| 2026-05-05 12:04 | 58.48902 | 45.39032 | 39699 ft | 484 kts | 256° |
| 2026-05-05 12:04 | 58.47206 | 45.26587 | 39697 ft | 484 kts | 256° |
| 2026-05-05 12:05 | 58.45495 | 45.14160 | 39699 ft | 483 kts | 256° |
| 2026-05-05 12:05 | 58.43787 | 45.01839 | 39707 ft | 483 kts | 256° |
| 2026-05-05 12:06 | 58.42053 | 44.89440 | 39722 ft | 484 kts | 255° |
| 2026-05-05 12:06 | 58.40304 | 44.77028 | 39729 ft | 485 kts | 255° |
| 2026-05-05 12:07 | 58.38541 | 44.64613 | 39715 ft | 485 kts | 255° |
| 2026-05-05 12:07 | 58.36767 | 44.52218 | 39716 ft | 485 kts | 255° |
| 2026-05-05 12:08 | 58.34980 | 44.39825 | 39731 ft | 484 kts | 255° |
| 2026-05-05 12:08 | 58.33183 | 44.27461 | 39733 ft | 484 kts | 255° |
| 2026-05-05 12:09 | 58.31374 | 44.15110 | 39735 ft | 484 kts | 255° |
| 2026-05-05 12:09 | 58.29566 | 44.02859 | 39736 ft | 484 kts | 255° |
| 2026-05-05 12:10 | 58.27734 | 43.90537 | 39738 ft | 484 kts | 255° |
| 2026-05-05 12:10 | 58.25890 | 43.78227 | 39741 ft | 484 kts | 254° |
| 2026-05-05 12:11 | 58.24034 | 43.65927 | 39726 ft | 484 kts | 254° |
| 2026-05-05 12:11 | 58.22166 | 43.53643 | 39730 ft | 484 kts | 254° |
| 2026-05-05 12:12 | 58.20284 | 43.41350 | 39735 ft | 485 kts | 254° |
| 2026-05-05 12:12 | 58.18391 | 43.29084 | 39739 ft | 485 kts | 254° |
| 2026-05-05 12:13 | 58.16498 | 43.16899 | 39737 ft | 485 kts | 254° |
| 2026-05-05 12:13 | 58.14582 | 43.04656 | 39750 ft | 485 kts | 254° |
| 2026-05-05 12:14 | 58.12650 | 42.92404 | 39757 ft | 486 kts | 253° |
| 2026-05-05 12:14 | 58.11019 | 42.82126 | 39757 ft | 486 kts | 253° |
| 2026-05-05 12:15 | 58.09078 | 42.69969 | 39756 ft | 486 kts | 253° |
| 2026-05-05 12:15 | 58.07112 | 42.57752 | 39764 ft | 486 kts | 253° |
| 2026-05-05 12:16 | 58.05135 | 42.45544 | 39748 ft | 486 kts | 253° |
| 2026-05-05 12:16 | 58.03146 | 42.33353 | 39759 ft | 485 kts | 253° |
| 2026-05-05 12:17 | 58.01159 | 42.21257 | 39754 ft | 485 kts | 253° |
| 2026-05-05 12:17 | 57.99147 | 42.09090 | 39753 ft | 485 kts | 253° |
| 2026-05-05 12:18 | 57.97125 | 41.96946 | 39760 ft | 486 kts | 253° |
| 2026-05-05 12:18 | 57.95093 | 41.84832 | 39773 ft | 486 kts | 253° |
| 2026-05-05 12:19 | 57.93044 | 41.72689 | 39767 ft | 486 kts | 253° |
| 2026-05-05 12:19 | 57.90985 | 41.60580 | 39770 ft | 486 kts | 252° |
| 2026-05-05 12:20 | 57.88922 | 41.48467 | 39766 ft | 486 kts | 253° |
| 2026-05-05 12:20 | 57.86868 | 41.36341 | 39767 ft | 486 kts | 252° |
| 2026-05-05 12:21 | 57.84803 | 41.24334 | 39769 ft | 486 kts | 252° |
| 2026-05-05 12:21 | 57.82723 | 41.12254 | 39774 ft | 486 kts | 252° |
| 2026-05-05 12:22 | 57.80626 | 41.00196 | 39766 ft | 485 kts | 252° |
| 2026-05-05 12:22 | 57.78526 | 40.88181 | 39765 ft | 485 kts | 252° |
| 2026-05-05 12:23 | 57.76414 | 40.76183 | 39763 ft | 485 kts | 252° |
| 2026-05-05 12:23 | 57.74292 | 40.64204 | 39763 ft | 485 kts | 252° |
| 2026-05-05 12:24 | 57.72158 | 40.52234 | 39757 ft | 484 kts | 252° |
| 2026-05-05 12:24 | 57.70019 | 40.40315 | 39765 ft | 483 kts | 252° |
| 2026-05-05 12:25 | 57.67869 | 40.28408 | 39760 ft | 483 kts | 252° |
| 2026-05-05 12:25 | 57.65708 | 40.16518 | 39766 ft | 483 kts | 252° |
| 2026-05-05 12:26 | 57.63549 | 40.04717 | 39772 ft | 483 kts | 251° |
| 2026-05-05 12:26 | 57.61365 | 39.92850 | 39773 ft | 483 kts | 251° |
| 2026-05-05 12:27 | 57.59177 | 39.81019 | 39769 ft | 482 kts | 251° |
| 2026-05-05 12:27 | 57.56980 | 39.69227 | 39771 ft | 481 kts | 251° |
| 2026-05-05 12:28 | 57.54774 | 39.57450 | 39772 ft | 481 kts | 251° |
| 2026-05-05 12:28 | 57.52572 | 39.45775 | 39772 ft | 481 kts | 251° |
| 2026-05-05 12:29 | 57.50347 | 39.34040 | 39775 ft | 481 kts | 251° |
| 2026-05-05 12:29 | 57.48108 | 39.22312 | 39792 ft | 480 kts | 251° |
| 2026-05-05 12:30 | 57.45869 | 39.10621 | 39791 ft | 480 kts | 251° |
| 2026-05-05 12:30 | 57.43613 | 38.98923 | 39790 ft | 481 kts | 250° |
| 2026-05-05 12:31 | 57.41350 | 38.87261 | 39789 ft | 481 kts | 250° |
| 2026-05-05 12:31 | 57.39071 | 38.75582 | 39796 ft | 481 kts | 250° |
| 2026-05-05 12:32 | 57.36784 | 38.63930 | 39778 ft | 481 kts | 250° |
| 2026-05-05 12:32 | 57.34485 | 38.52288 | 39789 ft | 481 kts | 250° |
| 2026-05-05 12:33 | 57.32194 | 38.40756 | 39799 ft | 481 kts | 250° |
| 2026-05-05 12:33 | 57.29872 | 38.29140 | 39794 ft | 481 kts | 250° |
| 2026-05-05 12:34 | 57.27531 | 38.17562 | 39802 ft | 481 kts | 250° |
| 2026-05-05 12:34 | 57.25185 | 38.05997 | 39802 ft | 481 kts | 250° |
| 2026-05-05 12:35 | 57.22825 | 37.94443 | 39786 ft | 480 kts | 249° |
| 2026-05-05 12:35 | 57.20456 | 37.82907 | 39794 ft | 480 kts | 249° |
| 2026-05-05 12:36 | 57.18097 | 37.71486 | 39789 ft | 480 kts | 249° |
| 2026-05-05 12:36 | 57.15562 | 37.60099 | 39801 ft | 479 kts | 245° |
| 2026-05-05 12:37 | 57.12740 | 37.48955 | 39806 ft | 481 kts | 245° |
| 2026-05-05 12:37 | 57.09917 | 37.37792 | 39794 ft | 481 kts | 245° |
| 2026-05-05 12:38 | 57.07073 | 37.26640 | 39798 ft | 481 kts | 245° |
| 2026-05-05 12:38 | 57.04229 | 37.15527 | 39797 ft | 481 kts | 245° |
| 2026-05-05 12:39 | 57.01368 | 37.04411 | 39797 ft | 481 kts | 245° |
| 2026-05-05 12:39 | 56.98518 | 36.93387 | 39790 ft | 481 kts | 245° |
| 2026-05-05 12:40 | 56.95646 | 36.82335 | 39797 ft | 481 kts | 245° |
| 2026-05-05 12:40 | 56.92762 | 36.71270 | 39791 ft | 481 kts | 245° |
| 2026-05-05 12:41 | 56.89873 | 36.60250 | 39796 ft | 481 kts | 245° |
| 2026-05-05 12:41 | 56.86967 | 36.49239 | 39794 ft | 481 kts | 244° |
| 2026-05-05 12:42 | 56.84041 | 36.38239 | 39799 ft | 481 kts | 244° |
| 2026-05-05 12:42 | 56.81114 | 36.27265 | 39801 ft | 481 kts | 244° |
| 2026-05-05 12:43 | 56.78193 | 36.16351 | 39809 ft | 482 kts | 244° |
| 2026-05-05 12:43 | 56.75241 | 36.05379 | 39813 ft | 482 kts | 244° |
| 2026-05-05 12:44 | 56.72280 | 35.94427 | 39824 ft | 482 kts | 244° |
| 2026-05-05 12:44 | 56.69309 | 35.83496 | 39823 ft | 482 kts | 244° |
| 2026-05-05 12:45 | 56.66331 | 35.72564 | 39817 ft | 482 kts | 244° |
| 2026-05-05 12:45 | 56.63363 | 35.61652 | 39812 ft | 482 kts | 244° |
| 2026-05-05 12:46 | 56.60356 | 35.50741 | 39811 ft | 482 kts | 243° |
| 2026-05-05 12:46 | 56.57346 | 35.39943 | 39810 ft | 482 kts | 244° |
| 2026-05-05 12:47 | 56.54349 | 35.29084 | 39817 ft | 482 kts | 244° |
| 2026-05-05 12:47 | 56.51329 | 35.18241 | 39811 ft | 482 kts | 243° |
| 2026-05-05 12:48 | 56.48303 | 35.07407 | 39813 ft | 482 kts | 243° |
| 2026-05-05 12:48 | 56.45263 | 34.96581 | 39820 ft | 482 kts | 243° |
| 2026-05-05 12:49 | 56.42203 | 34.85799 | 39829 ft | 482 kts | 243° |
| 2026-05-05 12:49 | 56.39151 | 34.75095 | 39829 ft | 482 kts | 243° |
| 2026-05-05 12:50 | 56.36068 | 34.64330 | 39817 ft | 484 kts | 243° |
| 2026-05-05 12:50 | 56.32985 | 34.53617 | 39817 ft | 484 kts | 243° |
| 2026-05-05 12:51 | 56.29882 | 34.42873 | 39820 ft | 484 kts | 243° |
| 2026-05-05 12:51 | 56.26768 | 34.32117 | 39823 ft | 484 kts | 243° |
| 2026-05-05 12:52 | 56.23644 | 34.21393 | 39822 ft | 484 kts | 243° |
| 2026-05-05 12:52 | 56.20514 | 34.10686 | 39820 ft | 484 kts | 243° |
| 2026-05-05 12:53 | 56.17371 | 33.99993 | 39826 ft | 484 kts | 243° |
| 2026-05-05 12:53 | 56.14218 | 33.89310 | 39826 ft | 484 kts | 243° |
| 2026-05-05 12:54 | 56.09488 | 33.73378 | 39838 ft | 484 kts | 243° |
| 2026-05-05 12:55 | 56.06312 | 33.62737 | 39834 ft | 484 kts | 242° |
| 2026-05-05 12:55 | 56.03124 | 33.52107 | 39834 ft | 484 kts | 242° |
| 2026-05-05 12:56 | 55.99936 | 33.41522 | 39835 ft | 484 kts | 242° |
| 2026-05-05 12:56 | 55.96732 | 33.30934 | 39834 ft | 484 kts | 242° |
| 2026-05-05 12:57 | 55.93523 | 33.20376 | 39832 ft | 484 kts | 242° |
| 2026-05-05 12:57 | 55.90327 | 33.09908 | 39828 ft | 483 kts | 242° |
| 2026-05-05 12:58 | 55.87102 | 32.99391 | 39828 ft | 483 kts | 242° |
| 2026-05-05 12:58 | 55.84702 | 32.88282 | 39850 ft | 483 kts | 256° |
| 2026-05-05 12:59 | 55.83207 | 32.76634 | 39841 ft | 483 kts | 257° |
| 2026-05-05 12:59 | 55.81706 | 32.64987 | 39841 ft | 482 kts | 257° |
| 2026-05-05 13:00 | 55.79437 | 32.47597 | 39828 ft | 481 kts | 257° |
| 2026-05-05 13:01 | 55.76392 | 32.24567 | 39827 ft | 480 kts | 256° |
| 2026-05-05 13:01 | 55.74840 | 32.12967 | 39829 ft | 480 kts | 256° |
| 2026-05-05 13:02 | 55.73296 | 32.01517 | 39829 ft | 480 kts | 256° |
| 2026-05-05 13:02 | 55.71730 | 31.89987 | 39828 ft | 480 kts | 256° |
| 2026-05-05 13:03 | 55.70159 | 31.78518 | 39837 ft | 478 kts | 256° |
| 2026-05-05 13:03 | 55.68583 | 31.67089 | 39829 ft | 477 kts | 256° |
| 2026-05-05 13:04 | 55.66996 | 31.55674 | 39828 ft | 476 kts | 256° |
| 2026-05-05 13:04 | 55.65403 | 31.44298 | 39824 ft | 476 kts | 256° |
| 2026-05-05 13:05 | 55.63801 | 31.32940 | 39827 ft | 476 kts | 256° |
| 2026-05-05 13:05 | 55.62194 | 31.21633 | 39829 ft | 477 kts | 256° |
| 2026-05-05 13:06 | 55.60830 | 31.12104 | 39823 ft | 478 kts | 256° |
| 2026-05-05 13:06 | 55.58925 | 30.98883 | 39826 ft | 476 kts | 255° |
| 2026-05-05 13:07 | 55.57540 | 30.89382 | 39823 ft | 476 kts | 255° |
| 2026-05-05 13:07 | 55.55861 | 30.78149 | 39824 ft | 476 kts | 255° |
| 2026-05-05 13:08 | 55.54176 | 30.66838 | 39826 ft | 476 kts | 255° |
| 2026-05-05 13:08 | 55.52473 | 30.55546 | 39827 ft | 476 kts | 255° |
| 2026-05-05 13:09 | 55.50761 | 30.44248 | 39829 ft | 476 kts | 255° |
| 2026-05-05 13:09 | 55.49039 | 30.32974 | 39818 ft | 476 kts | 255° |
| 2026-05-05 13:10 | 55.47305 | 30.21689 | 39845 ft | 477 kts | 255° |
| 2026-05-05 13:10 | 55.45561 | 30.10422 | 39846 ft | 476 kts | 254° |
| 2026-05-05 13:11 | 55.43816 | 29.99227 | 39847 ft | 477 kts | 254° |
| 2026-05-05 13:11 | 55.42050 | 29.87968 | 39844 ft | 477 kts | 254° |
| 2026-05-05 13:12 | 55.40276 | 29.76733 | 39845 ft | 476 kts | 254° |
| 2026-05-05 13:12 | 55.38487 | 29.65485 | 39842 ft | 477 kts | 254° |
| 2026-05-05 13:13 | 55.36690 | 29.54258 | 39834 ft | 478 kts | 254° |
| 2026-05-05 13:13 | 55.34878 | 29.43010 | 39849 ft | 478 kts | 254° |
| 2026-05-05 13:14 | 55.33059 | 29.31795 | 39844 ft | 478 kts | 254° |
| 2026-05-05 13:14 | 55.31227 | 29.20577 | 39843 ft | 478 kts | 254° |
| 2026-05-05 13:15 | 55.29386 | 29.09370 | 39839 ft | 478 kts | 253° |
| 2026-05-05 13:15 | 55.27533 | 28.98172 | 39848 ft | 478 kts | 253° |
| 2026-05-05 13:16 | 55.25672 | 28.86992 | 39845 ft | 478 kts | 253° |
| 2026-05-05 13:16 | 55.23812 | 28.75887 | 39851 ft | 478 kts | 253° |
| 2026-05-05 13:17 | 55.21929 | 28.64721 | 39848 ft | 478 kts | 253° |
| 2026-05-05 13:17 | 55.20037 | 28.53569 | 39851 ft | 477 kts | 253° |
| 2026-05-05 13:18 | 55.18136 | 28.42434 | 39848 ft | 477 kts | 253° |
| 2026-05-05 13:18 | 55.16226 | 28.31318 | 39848 ft | 477 kts | 253° |
| 2026-05-05 13:19 | 55.14402 | 28.20161 | 39849 ft | 478 kts | 258° |
| 2026-05-05 13:19 | 55.13056 | 28.08759 | 39856 ft | 479 kts | 258° |
| 2026-05-05 13:20 | 55.11689 | 27.97365 | 39854 ft | 479 kts | 258° |
| 2026-05-05 13:20 | 55.10318 | 27.85985 | 39859 ft | 479 kts | 258° |
| 2026-05-05 13:21 | 55.08941 | 27.74677 | 39851 ft | 479 kts | 257° |
| 2026-05-05 13:21 | 55.07546 | 27.63301 | 39854 ft | 479 kts | 257° |
| 2026-05-05 13:22 | 55.06139 | 27.51928 | 39855 ft | 479 kts | 257° |
| 2026-05-05 13:22 | 55.04721 | 27.40559 | 39837 ft | 480 kts | 257° |
| 2026-05-05 13:23 | 55.03293 | 27.29195 | 39851 ft | 480 kts | 257° |
| 2026-05-05 13:23 | 55.01853 | 27.17842 | 39859 ft | 479 kts | 257° |
| 2026-05-05 13:24 | 55.00423 | 27.06648 | 39858 ft | 479 kts | 257° |
| 2026-05-05 13:24 | 54.98965 | 26.95325 | 39855 ft | 479 kts | 257° |
| 2026-05-05 13:25 | 54.97495 | 26.84000 | 39856 ft | 479 kts | 257° |
| 2026-05-05 13:25 | 54.96016 | 26.72702 | 39859 ft | 479 kts | 257° |
| 2026-05-05 13:26 | 54.94526 | 26.61402 | 39845 ft | 479 kts | 257° |
| 2026-05-05 13:26 | 54.93037 | 26.50197 | 39863 ft | 479 kts | 257° |
| 2026-05-05 13:27 | 54.91530 | 26.38939 | 39859 ft | 478 kts | 257° |
| 2026-05-05 13:27 | 54.90010 | 26.27677 | 39857 ft | 478 kts | 257° |
| 2026-05-05 13:28 | 54.88479 | 26.16440 | 39857 ft | 478 kts | 256° |
| 2026-05-05 13:28 | 54.86927 | 26.05207 | 39862 ft | 478 kts | 256° |
| 2026-05-05 13:29 | 54.85373 | 25.93993 | 39866 ft | 478 kts | 256° |
| 2026-05-05 13:29 | 54.83803 | 25.82781 | 39850 ft | 478 kts | 256° |
| 2026-05-05 13:30 | 54.81601 | 25.71925 | 39865 ft | 478 kts | 247° |
| 2026-05-05 13:30 | 54.78908 | 25.61417 | 39869 ft | 477 kts | 246° |
| 2026-05-05 13:31 | 54.76205 | 25.50898 | 39867 ft | 478 kts | 246° |
| 2026-05-05 13:31 | 54.73511 | 25.40474 | 39870 ft | 478 kts | 246° |
| 2026-05-05 13:32 | 54.70790 | 25.29986 | 39890 ft | 478 kts | 246° |
| 2026-05-05 13:32 | 54.68057 | 25.19504 | 39878 ft | 478 kts | 246° |
| 2026-05-05 13:33 | 54.65316 | 25.09039 | 39875 ft | 478 kts | 246° |
| 2026-05-05 13:33 | 54.62564 | 24.98583 | 39891 ft | 478 kts | 246° |
| 2026-05-05 13:34 | 54.59808 | 24.88157 | 39883 ft | 477 kts | 246° |
| 2026-05-05 13:34 | 54.57047 | 24.77761 | 39878 ft | 477 kts | 246° |
| 2026-05-05 13:35 | 54.54275 | 24.67374 | 39869 ft | 477 kts | 246° |
| 2026-05-05 13:35 | 54.51495 | 24.57001 | 39863 ft | 477 kts | 246° |
| 2026-05-05 13:36 | 54.48702 | 24.46630 | 39864 ft | 477 kts | 246° |
| 2026-05-05 13:36 | 54.45959 | 24.36486 | 39862 ft | 477 kts | 246° |
| 2026-05-05 13:37 | 54.43149 | 24.26143 | 39865 ft | 477 kts | 246° |
| 2026-05-05 13:37 | 54.40332 | 24.15823 | 39878 ft | 476 kts | 245° |
| 2026-05-05 13:38 | 54.37516 | 24.05551 | 39867 ft | 476 kts | 245° |
| 2026-05-05 13:38 | 54.34681 | 23.95255 | 39869 ft | 478 kts | 245° |
| 2026-05-05 13:39 | 54.31835 | 23.84964 | 39873 ft | 478 kts | 245° |
| 2026-05-05 13:39 | 54.28980 | 23.74689 | 39870 ft | 478 kts | 245° |
| 2026-05-05 13:40 | 54.26136 | 23.64497 | 39870 ft | 478 kts | 245° |
| 2026-05-05 13:40 | 54.23263 | 23.54249 | 39870 ft | 478 kts | 245° |
| 2026-05-05 13:41 | 54.20377 | 23.43994 | 39871 ft | 478 kts | 245° |
| 2026-05-05 13:41 | 54.17711 | 23.33593 | 39882 ft | 477 kts | 248° |
| 2026-05-05 13:42 | 54.15160 | 23.23145 | 39877 ft | 477 kts | 248° |
| 2026-05-05 13:42 | 54.12589 | 23.12705 | 39877 ft | 477 kts | 248° |
| 2026-05-05 13:43 | 54.10031 | 23.02339 | 39878 ft | 477 kts | 248° |
| 2026-05-05 13:43 | 54.07445 | 22.91924 | 39866 ft | 478 kts | 249° |
| 2026-05-05 13:44 | 54.05527 | 22.81110 | 39877 ft | 478 kts | 255° |
| 2026-05-05 13:44 | 54.03754 | 22.70207 | 39875 ft | 478 kts | 255° |
| 2026-05-05 13:45 | 54.01971 | 22.59344 | 39884 ft | 477 kts | 254° |
| 2026-05-05 13:45 | 54.00182 | 22.48490 | 39882 ft | 477 kts | 254° |
| 2026-05-05 13:46 | 53.98381 | 22.37645 | 39879 ft | 476 kts | 254° |
| 2026-05-05 13:46 | 53.96571 | 22.26810 | 39881 ft | 477 kts | 254° |
| 2026-05-05 13:47 | 53.94752 | 22.15988 | 39886 ft | 477 kts | 254° |
| 2026-05-05 13:47 | 53.92934 | 22.05242 | 39887 ft | 477 kts | 254° |
| 2026-05-05 13:48 | 53.91097 | 21.94446 | 39879 ft | 476 kts | 253° |
| 2026-05-05 13:48 | 53.89252 | 21.83669 | 39880 ft | 476 kts | 253° |
| 2026-05-05 13:49 | 53.87395 | 21.72891 | 39876 ft | 476 kts | 253° |
| 2026-05-05 13:49 | 53.85530 | 21.62131 | 39877 ft | 476 kts | 253° |
| 2026-05-05 13:50 | 53.83657 | 21.51391 | 39880 ft | 476 kts | 253° |
| 2026-05-05 13:50 | 53.81770 | 21.40635 | 39870 ft | 477 kts | 253° |
| 2026-05-05 13:51 | 53.79884 | 21.29946 | 39876 ft | 477 kts | 253° |
| 2026-05-05 13:51 | 53.77976 | 21.19200 | 39876 ft | 477 kts | 253° |
| 2026-05-05 13:52 | 53.76060 | 21.08469 | 39873 ft | 477 kts | 253° |
| 2026-05-05 13:52 | 53.74134 | 20.97750 | 39872 ft | 477 kts | 253° |
| 2026-05-05 13:53 | 53.72201 | 20.87052 | 39873 ft | 476 kts | 253° |
| 2026-05-05 13:53 | 53.70256 | 20.76351 | 39858 ft | 476 kts | 253° |
| 2026-05-05 13:54 | 53.68302 | 20.65666 | 39855 ft | 477 kts | 253° |
| 2026-05-05 13:54 | 53.66335 | 20.54969 | 39858 ft | 477 kts | 253° |
| 2026-05-05 13:55 | 53.64366 | 20.44318 | 39863 ft | 476 kts | 253° |
| 2026-05-05 13:55 | 53.62386 | 20.33673 | 39856 ft | 476 kts | 252° |
| 2026-05-05 13:56 | 53.60395 | 20.23032 | 39862 ft | 476 kts | 252° |
| 2026-05-05 13:56 | 53.58733 | 20.14193 | 39861 ft | 477 kts | 252° |
| 2026-05-05 13:57 | 53.56395 | 20.01828 | 39862 ft | 476 kts | 252° |
| 2026-05-05 13:57 | 53.54372 | 19.91198 | 39862 ft | 477 kts | 252° |
| 2026-05-05 13:58 | 53.52686 | 19.82380 | 39859 ft | 476 kts | 252° |
| 2026-05-05 13:58 | 53.50655 | 19.71813 | 39856 ft | 474 kts | 252° |
| 2026-05-05 13:59 | 53.47593 | 19.55991 | 39859 ft | 476 kts | 252° |
| 2026-05-05 14:00 | 53.44501 | 19.40148 | 39873 ft | 476 kts | 252° |
| 2026-05-05 14:00 | 53.42429 | 19.29601 | 39866 ft | 476 kts | 252° |
| 2026-05-05 14:01 | 53.40344 | 19.19045 | 39868 ft | 477 kts | 252° |
| 2026-05-05 14:01 | 53.38247 | 19.08493 | 39869 ft | 477 kts | 251° |
| 2026-05-05 14:02 | 53.36143 | 18.97955 | 39876 ft | 477 kts | 251° |
| 2026-05-05 14:02 | 53.34026 | 18.87412 | 39865 ft | 477 kts | 251° |
| 2026-05-05 14:03 | 53.31915 | 18.76951 | 39876 ft | 477 kts | 251° |
| 2026-05-05 14:03 | 53.29784 | 18.66454 | 39875 ft | 477 kts | 251° |
| 2026-05-05 14:04 | 53.27643 | 18.55962 | 39867 ft | 477 kts | 251° |
| 2026-05-05 14:04 | 53.25495 | 18.45488 | 39865 ft | 477 kts | 251° |
| 2026-05-05 14:05 | 53.23336 | 18.35017 | 39864 ft | 477 kts | 251° |
| 2026-05-05 14:05 | 53.21165 | 18.24547 | 39861 ft | 477 kts | 251° |
| 2026-05-05 14:06 | 53.18987 | 18.14090 | 39868 ft | 478 kts | 251° |
| 2026-05-05 14:06 | 53.16811 | 18.03704 | 39864 ft | 478 kts | 251° |
| 2026-05-05 14:07 | 53.14600 | 17.93200 | 39863 ft | 478 kts | 250° |
| 2026-05-05 14:07 | 53.12401 | 17.82811 | 39854 ft | 479 kts | 250° |
| 2026-05-05 14:08 | 53.10180 | 17.72371 | 39865 ft | 479 kts | 250° |
| 2026-05-05 14:08 | 53.07950 | 17.61942 | 39864 ft | 479 kts | 250° |
| 2026-05-05 14:09 | 53.05710 | 17.51516 | 39872 ft | 478 kts | 250° |
| 2026-05-05 14:09 | 53.03464 | 17.41118 | 39874 ft | 478 kts | 250° |
| 2026-05-05 14:10 | 53.01206 | 17.30721 | 39871 ft | 478 kts | 250° |
| 2026-05-05 14:10 | 52.98940 | 17.20334 | 39849 ft | 478 kts | 250° |
| 2026-05-05 14:11 | 52.96693 | 17.10089 | 39860 ft | 480 kts | 250° |
| 2026-05-05 14:11 | 52.94401 | 16.99692 | 39858 ft | 480 kts | 250° |
| 2026-05-05 14:12 | 52.92100 | 16.89301 | 39866 ft | 481 kts | 250° |
| 2026-05-05 14:12 | 52.89785 | 16.78903 | 39873 ft | 481 kts | 250° |
| 2026-05-05 14:13 | 52.87461 | 16.68513 | 39871 ft | 481 kts | 250° |
| 2026-05-05 14:13 | 52.85143 | 16.58204 | 39865 ft | 481 kts | 250° |
| 2026-05-05 14:14 | 52.82798 | 16.47827 | 39856 ft | 482 kts | 250° |
| 2026-05-05 14:14 | 52.80440 | 16.37443 | 39847 ft | 482 kts | 250° |
| 2026-05-05 14:15 | 52.78071 | 16.27060 | 39866 ft | 482 kts | 250° |
| 2026-05-05 14:15 | 52.75699 | 16.16715 | 39865 ft | 482 kts | 249° |
| 2026-05-05 14:16 | 52.73313 | 16.06360 | 39865 ft | 482 kts | 249° |
| 2026-05-05 14:16 | 52.70920 | 15.96026 | 39865 ft | 482 kts | 249° |
| 2026-05-05 14:17 | 52.68517 | 15.85700 | 39864 ft | 482 kts | 249° |
| 2026-05-05 14:17 | 52.66122 | 15.75453 | 39844 ft | 482 kts | 249° |
| 2026-05-05 14:18 | 52.63705 | 15.65167 | 39862 ft | 481 kts | 249° |
| 2026-05-05 14:18 | 52.61284 | 15.54912 | 39859 ft | 481 kts | 249° |
| 2026-05-05 14:19 | 52.58852 | 15.44655 | 39856 ft | 481 kts | 249° |
| 2026-05-05 14:19 | 52.56409 | 15.34405 | 39854 ft | 481 kts | 249° |
| 2026-05-05 14:20 | 52.53961 | 15.24180 | 39864 ft | 481 kts | 249° |
| 2026-05-05 14:20 | 52.51537 | 15.14102 | 39862 ft | 481 kts | 249° |
| 2026-05-05 14:21 | 52.49072 | 15.03901 | 39858 ft | 480 kts | 249° |
| 2026-05-05 14:21 | 52.46599 | 14.93717 | 39853 ft | 480 kts | 249° |
| 2026-05-05 14:22 | 52.44120 | 14.83554 | 39853 ft | 480 kts | 249° |
| 2026-05-05 14:22 | 52.41648 | 14.73469 | 39850 ft | 480 kts | 249° |
| 2026-05-05 14:23 | 52.39186 | 14.63464 | 39852 ft | 480 kts | 249° |
| 2026-05-05 14:23 | 52.37685 | 14.52857 | 39859 ft | 480 kts | 264° |
| 2026-05-05 14:24 | 52.37119 | 14.41957 | 39852 ft | 480 kts | 264° |
| 2026-05-05 14:24 | 52.36549 | 14.31084 | 39849 ft | 480 kts | 264° |
| 2026-05-05 14:25 | 52.35966 | 14.20216 | 39847 ft | 480 kts | 264° |
| 2026-05-05 14:25 | 52.35164 | 14.09383 | 39880 ft | 479 kts | 254° |
| 2026-05-05 14:26 | 52.32438 | 13.99483 | 39850 ft | 480 kts | 239° |
| 2026-05-05 14:26 | 52.28897 | 13.90253 | 39856 ft | 479 kts | 239° |
| 2026-05-05 14:27 | 52.25443 | 13.80949 | 39861 ft | 478 kts | 239° |
| 2026-05-05 14:27 | 52.21956 | 13.71783 | 39863 ft | 478 kts | 239° |
| 2026-05-05 14:28 | 52.18475 | 13.62563 | 39847 ft | 476 kts | 239° |
| 2026-05-05 14:28 | 52.14984 | 13.53402 | 39846 ft | 476 kts | 239° |
| 2026-05-05 14:29 | 52.11482 | 13.44221 | 39845 ft | 477 kts | 239° |
| 2026-05-05 14:29 | 52.07974 | 13.35067 | 39853 ft | 477 kts | 239° |
| 2026-05-05 14:30 | 52.04460 | 13.25929 | 39849 ft | 476 kts | 239° |
| 2026-05-05 14:30 | 52.00948 | 13.16826 | 39848 ft | 474 kts | 238° |
| 2026-05-05 14:31 | 51.97466 | 13.07836 | 39839 ft | 474 kts | 238° |
| 2026-05-05 14:31 | 51.93948 | 12.98783 | 39847 ft | 475 kts | 238° |
| 2026-05-05 14:32 | 51.90421 | 12.89740 | 39846 ft | 475 kts | 238° |
| 2026-05-05 14:32 | 51.86877 | 12.80684 | 39842 ft | 475 kts | 238° |
| 2026-05-05 14:33 | 51.83330 | 12.71653 | 39845 ft | 475 kts | 238° |
| 2026-05-05 14:33 | 51.79779 | 12.62645 | 39848 ft | 474 kts | 238° |
| 2026-05-05 14:34 | 51.76254 | 12.53733 | 39841 ft | 474 kts | 238° |
| 2026-05-05 14:34 | 51.72701 | 12.44780 | 39845 ft | 474 kts | 237° |
| 2026-05-05 14:35 | 51.69135 | 12.35827 | 39847 ft | 474 kts | 237° |
| 2026-05-05 14:35 | 51.65569 | 12.26906 | 39843 ft | 474 kts | 237° |
| 2026-05-05 14:36 | 51.61999 | 12.18005 | 39834 ft | 473 kts | 237° |
| 2026-05-05 14:36 | 51.58420 | 12.09112 | 39849 ft | 473 kts | 237° |
| 2026-05-05 14:37 | 51.54832 | 12.00227 | 39851 ft | 474 kts | 237° |
| 2026-05-05 14:37 | 51.51233 | 11.91347 | 39854 ft | 474 kts | 237° |
| 2026-05-05 14:38 | 51.47627 | 11.82479 | 39842 ft | 475 kts | 237° |
| 2026-05-05 14:38 | 51.44042 | 11.73691 | 39841 ft | 474 kts | 237° |
| 2026-05-05 14:39 | 51.40423 | 11.64855 | 39836 ft | 474 kts | 236° |
| 2026-05-05 14:39 | 51.36803 | 11.56041 | 39837 ft | 473 kts | 236° |
| 2026-05-05 14:40 | 51.33179 | 11.47251 | 39848 ft | 474 kts | 236° |
| 2026-05-05 14:40 | 51.29547 | 11.38470 | 39853 ft | 474 kts | 236° |
| 2026-05-05 14:41 | 51.25895 | 11.29670 | 39830 ft | 475 kts | 236° |
| 2026-05-05 14:41 | 51.22236 | 11.20885 | 39832 ft | 475 kts | 236° |
| 2026-05-05 14:42 | 51.18593 | 11.12165 | 39830 ft | 476 kts | 236° |
| 2026-05-05 14:42 | 51.14912 | 11.03387 | 39825 ft | 476 kts | 236° |
| 2026-05-05 14:43 | 51.11236 | 10.94647 | 39840 ft | 476 kts | 236° |
| 2026-05-05 14:43 | 51.07540 | 10.85890 | 39839 ft | 476 kts | 235° |
| 2026-05-05 14:44 | 51.03836 | 10.77146 | 39830 ft | 478 kts | 235° |
| 2026-05-05 14:44 | 51.00115 | 10.68391 | 39831 ft | 478 kts | 235° |
| 2026-05-05 14:45 | 50.96386 | 10.59644 | 39565 ft | 478 kts | 235° |
| 2026-05-05 14:45 | 50.94530 | 10.55300 | 39067 ft | 474 kts | 235° |
| 2026-05-05 14:45 | 50.92680 | 10.50980 | 38497 ft | 472 kts | 234° |
| 2026-05-05 14:46 | 50.90842 | 10.46695 | 37794 ft | 470 kts | 234° |
| 2026-05-05 14:46 | 50.89005 | 10.42419 | 37114 ft | 467 kts | 234° |
| 2026-05-05 14:46 | 50.87205 | 10.38234 | 36476 ft | 465 kts | 234° |
| 2026-05-05 14:46 | 50.85385 | 10.34010 | 35820 ft | 462 kts | 233° |
| 2026-05-05 14:47 | 50.83575 | 10.29819 | 35200 ft | 459 kts | 233° |
| 2026-05-05 14:47 | 50.81779 | 10.25665 | 34595 ft | 456 kts | 233° |
| 2026-05-05 14:47 | 50.80006 | 10.21523 | 34004 ft | 453 kts | 236° |
| 2026-05-05 14:47 | 50.78522 | 10.17135 | 33365 ft | 452 kts | 240° |
| 2026-05-05 14:48 | 50.77113 | 10.12701 | 32689 ft | 451 kts | 240° |
| 2026-05-05 14:48 | 50.75699 | 10.08268 | 32052 ft | 453 kts | 240° |
| 2026-05-05 14:48 | 50.74759 | 10.05325 | 31588 ft | 455 kts | 240° |
| 2026-05-05 14:48 | 50.73332 | 10.00860 | 30872 ft | 456 kts | 240° |
| 2026-05-05 14:49 | 50.71903 | 9.96392 | 30115 ft | 455 kts | 240° |
| 2026-05-05 14:49 | 50.70479 | 9.91948 | 29260 ft | 452 kts | 240° |
| 2026-05-05 14:49 | 50.69060 | 9.87532 | 28388 ft | 449 kts | 240° |
| 2026-05-05 14:49 | 50.67647 | 9.83144 | 27545 ft | 446 kts | 241° |
| 2026-05-05 14:50 | 50.66248 | 9.78804 | 26725 ft | 443 kts | 241° |
| 2026-05-05 14:50 | 50.64806 | 9.74543 | 25930 ft | 438 kts | 236° |
| 2026-05-05 14:50 | 50.62985 | 9.70739 | 25163 ft | 432 kts | 226° |
| 2026-05-05 14:50 | 50.60797 | 9.67535 | 24405 ft | 427 kts | 216° |
| 2026-05-05 14:51 | 50.58325 | 9.65009 | 23675 ft | 422 kts | 207° |
| 2026-05-05 14:51 | 50.55641 | 9.63162 | 22871 ft | 418 kts | 201° |
| 2026-05-05 14:51 | 50.52974 | 9.61418 | 22033 ft | 414 kts | 207° |
| 2026-05-05 14:51 | 50.50560 | 9.59008 | 21207 ft | 410 kts | 218° |
| 2026-05-05 14:52 | 50.48497 | 9.55944 | 20436 ft | 407 kts | 228° |
| 2026-05-05 14:52 | 50.46853 | 9.52353 | 19668 ft | 405 kts | 238° |
| 2026-05-05 14:52 | 50.45672 | 9.48354 | 18915 ft | 403 kts | 249° |
| 2026-05-05 14:52 | 50.44854 | 9.44172 | 18174 ft | 399 kts | 251° |
| 2026-05-05 14:53 | 50.44068 | 9.40023 | 17338 ft | 395 kts | 251° |
| 2026-05-05 14:53 | 50.43301 | 9.35963 | 16521 ft | 391 kts | 251° |
| 2026-05-05 14:53 | 50.42530 | 9.31904 | 15720 ft | 386 kts | 251° |
| 2026-05-05 14:53 | 50.41754 | 9.27844 | 14908 ft | 382 kts | 251° |
| 2026-05-05 14:54 | 50.40965 | 9.23939 | 14158 ft | 377 kts | 248° |
| 2026-05-05 14:54 | 50.40040 | 9.20057 | 13375 ft | 373 kts | 249° |
| 2026-05-05 14:54 | 50.39190 | 9.16292 | 12666 ft | 367 kts | 249° |
| 2026-05-05 14:54 | 50.38345 | 9.12581 | 12143 ft | 355 kts | 249° |
| 2026-05-05 14:55 | 50.37505 | 9.08991 | 11633 ft | 346 kts | 248° |
| 2026-05-05 14:55 | 50.36652 | 9.05354 | 11095 ft | 337 kts | 249° |
| 2026-05-05 14:55 | 50.35892 | 9.02086 | 10601 ft | 329 kts | 249° |
| 2026-05-05 14:55 | 50.35117 | 8.98751 | 10108 ft | 322 kts | 249° |
| 2026-05-05 14:56 | 50.34362 | 8.95518 | 9819 ft | 308 kts | 249° |
| 2026-05-05 14:56 | 50.33651 | 8.92479 | 9803 ft | 288 kts | 248° |
| 2026-05-05 14:56 | 50.32969 | 8.89571 | 9746 ft | 286 kts | 248° |
| 2026-05-05 14:56 | 50.32097 | 8.86781 | 9352 ft | 284 kts | 229° |
| 2026-05-05 14:57 | 50.30604 | 8.84844 | 8997 ft | 277 kts | 205° |
| 2026-05-05 14:57 | 50.28779 | 8.84028 | 8651 ft | 273 kts | 182° |
| 2026-05-05 14:57 | 50.26910 | 8.84408 | 8318 ft | 271 kts | 162° |
| 2026-05-05 14:57 | 50.25158 | 8.85455 | 7980 ft | 270 kts | 153° |
| 2026-05-05 14:58 | 50.23729 | 8.87334 | 7656 ft | 272 kts | 128° |
| 2026-05-05 14:58 | 50.22918 | 8.89978 | 7281 ft | 271 kts | 104° |
| 2026-05-05 14:58 | 50.22879 | 8.92896 | 6912 ft | 271 kts | 79° |
| 2026-05-05 14:58 | 50.23447 | 8.95651 | 6509 ft | 266 kts | 71° |
| 2026-05-05 14:59 | 50.24094 | 8.98344 | 6083 ft | 262 kts | 72° |
| 2026-05-05 14:59 | 50.24715 | 9.00986 | 5659 ft | 255 kts | 71° |
| 2026-05-05 14:59 | 50.25320 | 9.03533 | 5301 ft | 244 kts | 71° |
| 2026-05-05 14:59 | 50.25887 | 9.05957 | 4910 ft | 229 kts | 72° |
| 2026-05-05 15:00 | 50.26272 | 9.08268 | 4574 ft | 214 kts | 91° |
| 2026-05-05 15:00 | 50.26108 | 9.09758 | 4245 ft | 208 kts | 115° |
| 2026-05-05 15:00 | 50.24835 | 9.11718 | 4007 ft | 189 kts | 157° |
| 2026-05-05 15:00 | 50.23523 | 9.12214 | 4024 ft | 194 kts | 180° |
| 2026-05-05 15:01 | 50.22179 | 9.12161 | 4026 ft | 193 kts | 183° |
| 2026-05-05 15:01 | 50.20829 | 9.12133 | 4020 ft | 199 kts | 180° |
| 2026-05-05 15:01 | 50.19466 | 9.12211 | 4014 ft | 195 kts | 178° |
| 2026-05-05 15:01 | 50.18105 | 9.12296 | 4011 ft | 198 kts | 182° |
| 2026-05-05 15:02 | 50.16860 | 9.11609 | 3996 ft | 192 kts | 217° |
| 2026-05-05 15:02 | 50.16061 | 9.09923 | 4000 ft | 198 kts | 248° |
| 2026-05-05 15:02 | 50.15604 | 9.07901 | 4009 ft | 197 kts | 249° |
| 2026-05-05 15:02 | 50.15147 | 9.05870 | 4014 ft | 199 kts | 249° |
| 2026-05-05 15:03 | 50.14683 | 9.03855 | 4013 ft | 194 kts | 249° |
| 2026-05-05 15:03 | 50.14278 | 9.01823 | 4018 ft | 197 kts | 251° |
| 2026-05-05 15:03 | 50.13831 | 8.99785 | 4017 ft | 197 kts | 248° |
| 2026-05-05 15:03 | 50.13356 | 8.97784 | 4012 ft | 198 kts | 248° |
| 2026-05-05 15:04 | 50.12882 | 8.95793 | 4015 ft | 196 kts | 248° |
| 2026-05-05 15:04 | 50.12408 | 8.93807 | 4015 ft | 196 kts | 248° |
| 2026-05-05 15:04 | 50.11931 | 8.91818 | 4007 ft | 198 kts | 248° |
| 2026-05-05 15:04 | 50.11446 | 8.89782 | 4015 ft | 197 kts | 248° |
| 2026-05-05 15:05 | 50.10484 | 8.85761 | 3935 ft | 202 kts | 249° |
| 2026-05-05 15:05 | 50.10012 | 8.83787 | 3688 ft | 191 kts | 249° |
| 2026-05-05 15:05 | 50.09562 | 8.81902 | 3433 ft | 182 kts | 248° |
| 2026-05-05 15:06 | 50.09122 | 8.80058 | 3199 ft | 180 kts | 249° |
| 2026-05-05 15:06 | 50.08688 | 8.78241 | 2968 ft | 182 kts | 248° |
| 2026-05-05 15:06 | 50.08252 | 8.76411 | 2757 ft | 177 kts | 248° |
| 2026-05-05 15:06 | 50.07853 | 8.74739 | 2494 ft | 155 kts | 248° |
| 2026-05-05 15:07 | 50.07484 | 8.73195 | 2290 ft | 152 kts | 248° |
| 2026-05-05 15:07 | 50.07179 | 8.71916 | 2142 ft | 146 kts | 249° |
| 2026-05-05 15:07 | 50.06977 | 8.71070 | 2038 ft | 147 kts | 248° |
| 2026-05-05 15:07 | 50.06626 | 8.69606 | 1862 ft | 145 kts | 249° |
| 2026-05-05 15:08 | 50.06278 | 8.68153 | 1684 ft | 144 kts | 249° |
| 2026-05-05 15:08 | 50.05922 | 8.66667 | 1484 ft | 146 kts | 249° |
| 2026-05-05 15:08 | 50.05586 | 8.65205 | 1300 ft | 141 kts | 250° |
| 2026-05-05 15:08 | 50.05242 | 8.63764 | 1108 ft | 143 kts | 248° |
| 2026-05-05 15:09 | 50.04868 | 8.62277 | 896 ft | 147 kts | 249° |
| 2026-05-05 15:09 | 50.04524 | 8.60808 | 690 ft | 144 kts | 250° |
| 2026-05-05 15:09 | 50.04165 | 8.59332 | 506 ft | 144 kts | 250° |
| 2026-05-05 15:09 | 50.03836 | 8.57955 | 373 ft | 127 kts | 249° |
| 2026-05-05 15:10 | 50.03583 | 8.56872 | 366 ft | 83 kts | 250° |
| 2026-05-05 15:10 | 50.03453 | 8.56320 | 359 ft | 37 kts | 253° |
| 2026-05-05 15:10 | 50.03444 | 8.55960 | 357 ft | 32 kts | 280° |
| 2026-05-05 15:10 | 50.03476 | 8.55743 | 357 ft | 11 kts | 293° |
| 2026-05-05 15:11 | 50.03483 | 8.55729 | 357 ft | 0 kts | 309° |
| 2026-05-05 15:11 | 50.03483 | 8.55728 | 357 ft | 0 kts | 309° |
| 2026-05-05 15:11 | 50.03498 | 8.55713 | 359 ft | 5 kts | 336° |
| 2026-05-05 15:11 | 50.03557 | 8.55734 | 363 ft | 5 kts | 42° |
| 2026-05-05 15:12 | 50.03573 | 8.55792 | 362 ft | 15 kts | 70° |
| 2026-05-05 15:12 | 50.03618 | 8.55984 | 362 ft | 18 kts | 70° |
| 2026-05-05 15:12 | 50.03658 | 8.56165 | 361 ft | 18 kts | 70° |
| 2026-05-05 15:12 | 50.03714 | 8.56401 | 365 ft | 28 kts | 70° |
| 2026-05-05 15:13 | 50.03777 | 8.56667 | 361 ft | 25 kts | 69° |
| 2026-05-05 15:13 | 50.03835 | 8.56906 | 366 ft | 25 kts | 69° |
| 2026-05-05 15:13 | 50.03893 | 8.57149 | 369 ft | 21 kts | 70° |
| 2026-05-05 15:13 | 50.03938 | 8.57340 | 371 ft | 19 kts | 70° |
| 2026-05-05 15:14 | 50.03991 | 8.57565 | 375 ft | 24 kts | 70° |
| 2026-05-05 15:14 | 50.04047 | 8.57798 | 375 ft | 23 kts | 69° |
| 2026-05-05 15:14 | 50.04099 | 8.58012 | 377 ft | 19 kts | 69° |
| 2026-05-05 15:14 | 50.04146 | 8.58205 | 376 ft | 19 kts | 69° |
| 2026-05-05 15:15 | 50.04189 | 8.58383 | 375 ft | 17 kts | 70° |
| 2026-05-05 15:15 | 50.04227 | 8.58542 | 375 ft | 14 kts | 70° |
| 2026-05-05 15:15 | 50.04263 | 8.58609 | 376 ft | 7 kts | 29° |
| 2026-05-05 15:15 | 50.04333 | 8.58629 | 376 ft | 14 kts | 6° |
| 2026-05-05 15:16 | 50.04415 | 8.58640 | 377 ft | 12 kts | 0° |
| 2026-05-05 15:16 | 50.04514 | 8.58630 | 377 ft | 14 kts | 349° |
| 2026-05-05 15:16 | 50.04596 | 8.58588 | 376 ft | 11 kts | 340° |
| 2026-05-05 15:16 | 50.04657 | 8.58583 | 375 ft | 6 kts | 20° |
| 2026-05-05 15:17 | 50.04686 | 8.58617 | 375 ft | 6 kts | 49° |
| 2026-05-05 15:17 | 50.04721 | 8.58714 | 375 ft | 11 kts | 49° |
| 2026-05-05 15:17 | 50.04779 | 8.58752 | 375 ft | 6 kts | 359° |
| 2026-05-05 15:17 | 50.04832 | 8.58722 | 370 ft | 14 kts | 338° |
| 2026-05-05 15:18 | 50.04924 | 8.58652 | 368 ft | 12 kts | 318° |
| 2026-05-05 15:18 | 50.04943 | 8.58590 | 371 ft | 3 kts | 273° |
| 2026-05-05 15:18 | 50.04920 | 8.58523 | 370 ft | 13 kts | 240° |
| 2026-05-05 15:18 | 50.04887 | 8.58385 | 370 ft | 11 kts | 263° |
| 2026-05-05 15:19 | 50.04902 | 8.58341 | 369 ft | 7 kts | 324° |
| 2026-05-05 15:19 | 50.04927 | 8.58320 | 366 ft | 6 kts | 329° |
| 2026-05-05 15:19 | 50.04955 | 8.58299 | 368 ft | 0 kts | 338° |
| 2026-05-05 15:19 | 50.04956 | 8.58298 | 367 ft | 0 kts | 338° |